Time;durP1;ratioP1;P1;durP2;ratioP2;P2;SDS_P1;SDS_P2;PMS_P1;PMS_P2;Temp;Humidity;BMP_temperature;BMP_pressure;BME280_temperature;BME280_humidity;BME280_pressure;Samples;Min_cycle;Max_cycle;Signal;HPM_P1;HPM_P2
2023/06/01 00:01:49;;;;;;;11.80;9.07;;;11.80;99.90;;;;;;5051378;28;20048;-71
2023/06/01 00:04:14;;;;;;;12.63;9.00;;;11.70;99.90;;;;;;5051701;28;20032;-72
2023/06/01 00:06:40;;;;;;;13.43;9.55;;;11.60;99.90;;;;;;5051369;28;20028;-72
2023/06/01 00:09:07;;;;;;;15.27;9.65;;;11.60;99.90;;;;;;5051940;28;20378;-72
2023/06/01 00:11:33;;;;;;;13.32;9.32;;;11.60;99.90;;;;;;5051523;28;20470;-71
2023/06/01 00:13:59;;;;;;;14.20;9.48;;;11.60;99.90;;;;;;5051149;28;20070;-71
2023/06/01 00:16:25;;;;;;;12.95;9.13;;;11.60;99.90;;;;;;5051927;28;20094;-71
2023/06/01 00:18:52;;;;;;;12.95;9.43;;;11.60;99.90;;;;;;5051034;28;20059;-72
2023/06/01 00:21:19;;;;;;;14.57;10.38;;;11.60;99.90;;;;;;5051734;28;20037;-71
2023/06/01 00:23:45;;;;;;;12.15;9.82;;;11.60;99.90;;;;;;5051282;28;20435;-72
2023/06/01 00:26:11;;;;;;;12.45;8.88;;;11.50;99.90;;;;;;5051178;28;20052;-71
2023/06/01 00:28:37;;;;;;;12.38;9.38;;;11.40;99.90;;;;;;5050947;28;20374;-74
2023/06/01 00:31:03;;;;;;;14.10;8.65;;;11.40;99.90;;;;;;5051374;28;20473;-69
2023/06/01 00:33:29;;;;;;;8.77;7.68;;;11.30;99.90;;;;;;5050959;28;20033;-71
2023/06/01 00:35:54;;;;;;;11.70;8.20;;;11.30;99.90;;;;;;5050553;28;20067;-72
2023/06/01 00:38:20;;;;;;;12.10;8.95;;;11.30;99.90;;;;;;5051267;28;20025;-71
2023/06/01 00:40:49;;;;;;;12.10;9.73;;;11.20;99.90;;;;;;5050697;28;20052;-72
2023/06/01 00:43:16;;;;;;;14.15;9.85;;;11.30;99.90;;;;;;5051205;28;20063;-71
2023/06/01 00:45:41;;;;;;;13.75;10.38;;;11.10;99.90;;;;;;5050386;28;20025;-72
2023/06/01 00:48:07;;;;;;;13.90;9.95;;;11.10;99.90;;;;;;5051882;28;20055;-72
2023/06/01 00:50:33;;;;;;;13.98;10.35;;;11.10;99.90;;;;;;5050951;28;20071;-71
2023/06/01 00:53:02;;;;;;;17.50;11.35;;;11.10;99.90;;;;;;5050325;28;20021;-71
2023/06/01 00:55:28;;;;;;;14.30;11.10;;;11.10;99.90;;;;;;5051000;28;20040;-71
2023/06/01 00:57:55;;;;;;;16.73;11.38;;;11.10;99.90;;;;;;5050004;28;20041;-71
2023/06/01 01:00:22;;;;;;;17.33;11.50;;;11.00;99.90;;;;;;5050677;28;20032;-71
2023/06/01 01:02:49;;;;;;;15.35;10.55;;;11.10;99.90;;;;;;5049811;28;20470;-71
2023/06/01 01:05:16;;;;;;;14.70;10.98;;;11.00;99.90;;;;;;5050312;28;20061;-71
2023/06/01 01:07:54;;;;;;;15.80;11.32;;;10.90;99.90;;;;;;5049092;28;20107;-71
2023/06/01 01:10:45;;;;;;;16.92;10.35;;;11.00;99.90;;;;;;5050817;28;20117;-71
2023/06/01 01:13:23;;;;;;;14.95;10.45;;;10.90;99.90;;;;;;5042729;28;20040;-71
2023/06/01 01:16:24;;;;;;;16.48;10.75;;;10.90;99.90;;;;;;5049738;28;20031;-71
2023/06/01 01:19:26;;;;;;;14.55;10.90;;;10.90;99.90;;;;;;5049659;28;20082;-71
2023/06/01 01:22:03;;;;;;;16.02;10.98;;;10.90;99.90;;;;;;5049711;28;20041;-71
2023/06/01 01:24:32;;;;;;;15.88;10.68;;;11.00;99.90;;;;;;5050357;28;20028;-71
2023/06/01 01:27:27;;;;;;;13.27;10.25;;;10.90;99.90;;;;;;5049555;28;20133;-71
2023/06/01 01:29:55;;;;;;;16.65;10.65;;;10.90;99.90;;;;;;5049659;28;20052;-72
2023/06/01 01:32:25;;;;;;;16.05;10.05;;;10.90;99.90;;;;;;5050030;28;20112;-71
2023/06/01 01:34:52;;;;;;;14.85;10.40;;;10.90;99.90;;;;;;5049334;28;20025;-72
2023/06/01 01:37:17;;;;;;;12.32;9.10;;;10.80;99.90;;;;;;5050057;28;20020;-71
2023/06/01 01:39:43;;;;;;;15.90;10.32;;;10.80;99.90;;;;;;5049199;28;20041;-72
2023/06/01 01:42:09;;;;;;;14.23;10.82;;;10.70;99.90;;;;;;5050066;28;20071;-71
2023/06/01 01:44:35;;;;;;;16.90;10.55;;;10.70;99.90;;;;;;5049941;28;20029;-70
2023/06/01 01:47:14;;;;;;;12.35;9.55;;;10.70;99.90;;;;;;5049243;28;20105;-71
2023/06/01 01:49:48;;;;;;;12.77;8.98;;;10.70;99.90;;;;;;5049391;28;20028;-73
2023/06/01 01:52:31;;;;;;;17.55;9.90;;;10.70;99.90;;;;;;5049711;28;20066;-70
2023/06/01 01:54:58;;;;;;;13.35;10.23;;;10.70;99.90;;;;;;5049312;28;20029;-72
2023/06/01 01:57:25;;;;;;;15.85;11.02;;;10.70;99.90;;;;;;5049806;28;20044;-70
2023/06/01 01:59:53;;;;;;;16.42;10.68;;;10.70;99.90;;;;;;5049007;28;20430;-70
2023/06/01 02:02:19;;;;;;;15.27;9.88;;;10.80;99.90;;;;;;5049738;28;20461;-70
2023/06/01 02:04:47;;;;;;;13.10;10.13;;;10.80;99.90;;;;;;5049289;28;20120;-71
2023/06/01 02:07:13;;;;;;;15.50;10.85;;;10.80;99.90;;;;;;5049377;28;20456;-70
2023/06/01 02:09:40;;;;;;;14.52;9.63;;;10.60;99.90;;;;;;5049576;28;20107;-70
2023/06/01 02:12:06;;;;;;;13.10;9.73;;;10.60;99.90;;;;;;5049236;28;20029;-70
2023/06/01 02:14:33;;;;;;;14.27;10.38;;;10.60;99.90;;;;;;5050187;28;20036;-70
2023/06/01 02:17:00;;;;;;;13.60;9.50;;;10.60;99.90;;;;;;5047743;28;20363;-70
2023/06/01 02:19:26;;;;;;;13.48;9.43;;;10.60;99.90;;;;;;5051377;28;20420;-70
2023/06/01 02:21:52;;;;;;;13.55;10.35;;;10.60;99.90;;;;;;5052876;28;20033;-70
2023/06/01 02:24:18;;;;;;;16.27;10.80;;;10.50;99.90;;;;;;5054188;28;20370;-72
2023/06/01 02:26:45;;;;;;;15.20;10.68;;;10.40;99.90;;;;;;5053136;28;20457;-73
2023/06/01 02:29:12;;;;;;;15.95;10.55;;;10.40;99.90;;;;;;5053748;28;20120;-70
2023/06/01 02:31:38;;;;;;;12.77;9.48;;;10.30;99.90;;;;;;5053698;28;20143;-70
2023/06/01 02:34:04;;;;;;;13.20;9.77;;;10.30;99.90;;;;;;5052880;28;20331;-70
2023/06/01 02:36:31;;;;;;;15.35;11.40;;;10.30;99.90;;;;;;5053515;28;20021;-70
2023/06/01 02:38:57;;;;;;;16.75;10.77;;;10.30;99.90;;;;;;5052876;28;20391;-70
2023/06/01 02:41:23;;;;;;;13.43;8.98;;;10.30;99.90;;;;;;5053570;28;20178;-70
2023/06/01 02:43:52;;;;;;;12.75;9.57;;;10.30;99.90;;;;;;5052675;28;20028;-70
2023/06/01 02:46:19;;;;;;;15.35;10.15;;;10.20;99.90;;;;;;5053205;28;20498;-70
2023/06/01 02:48:45;;;;;;;15.93;10.10;;;10.20;99.90;;;;;;5051797;28;20166;-74
2023/06/01 02:51:11;;;;;;;17.67;10.70;;;10.20;99.90;;;;;;5053499;28;20029;-70
2023/06/01 02:53:39;;;;;;;17.35;11.48;;;10.30;99.90;;;;;;5053239;28;20025;-70
2023/06/01 02:56:05;;;;;;;16.42;10.85;;;10.30;99.90;;;;;;5052501;28;20620;-70
2023/06/01 02:58:31;;;;;;;14.57;10.38;;;10.30;99.90;;;;;;5052944;28;20072;-70
2023/06/01 03:01:00;;;;;;;16.13;10.70;;;10.30;99.90;;;;;;5051428;28;20032;-70
2023/06/01 03:03:26;;;;;;;15.13;11.13;;;10.20;99.90;;;;;;5053011;28;20029;-70
2023/06/01 03:05:53;;;;;;;16.13;10.88;;;10.20;99.90;;;;;;5052335;28;20040;-70
2023/06/01 03:08:19;;;;;;;17.10;11.63;;;10.20;99.90;;;;;;5051385;28;20203;-70
2023/06/01 03:10:45;;;;;;;18.02;11.82;;;10.20;99.90;;;;;;5052424;28;20207;-71
2023/06/01 03:13:11;;;;;;;15.15;10.73;;;10.20;99.90;;;;;;5052436;28;20054;-70
2023/06/01 03:15:37;;;;;;;17.00;11.48;;;10.00;99.90;;;;;;5053098;28;20032;-70
2023/06/01 03:18:05;;;;;;;17.20;10.88;;;10.00;99.90;;;;;;5051976;28;20040;-70
2023/06/01 03:20:31;;;;;;;18.42;11.48;;;9.90;99.90;;;;;;5052539;28;20031;-70
2023/06/01 03:22:57;;;;;;;17.92;11.43;;;9.80;99.90;;;;;;5051658;28;20025;-70
2023/06/01 03:25:24;;;;;;;15.63;11.50;;;9.90;99.90;;;;;;5052129;28;20431;-70
2023/06/01 03:27:50;;;;;;;16.23;10.38;;;9.80;99.90;;;;;;5051866;28;20089;-70
2023/06/01 03:30:18;;;;;;;15.30;9.55;;;9.80;99.90;;;;;;5051092;28;20045;-70
2023/06/01 03:32:45;;;;;;;14.38;10.95;;;9.80;99.90;;;;;;5052187;28;20112;-70
2023/06/01 03:35:11;;;;;;;18.00;11.18;;;9.80;99.90;;;;;;5051852;28;20104;-70
2023/06/01 03:37:40;;;;;;;18.52;11.07;;;9.80;99.90;;;;;;5052129;28;20029;-70
2023/06/01 03:40:11;;;;;;;18.58;11.95;;;9.70;99.90;;;;;;5050052;28;20079;-70
2023/06/01 03:42:48;;;;;;;16.67;11.18;;;9.70;99.90;;;;;;5052162;28;20025;-71
2023/06/01 03:45:18;;;;;;;18.15;10.98;;;9.60;99.90;;;;;;5051710;28;20497;-70
2023/06/01 03:47:44;;;;;;;17.45;11.98;;;9.70;99.90;;;;;;5052039;28;20505;-70
2023/06/01 03:50:11;;;;;;;15.27;10.00;;;9.80;99.90;;;;;;5051498;28;20029;-70
2023/06/01 03:52:37;;;;;;;16.65;11.65;;;9.70;99.90;;;;;;5051936;28;20090;-71
2023/06/01 03:55:08;;;;;;;16.42;11.35;;;9.80;99.90;;;;;;5051201;28;20100;-71
2023/06/01 03:57:37;;;;;;;18.85;13.02;;;9.80;99.90;;;;;;5051749;28;20029;-70
2023/06/01 04:00:17;;;;;;;19.08;12.02;;;9.80;99.90;;;;;;5051285;28;20039;-70
2023/06/01 04:02:49;;;;;;;18.95;12.00;;;9.90;99.90;;;;;;5051661;28;20104;-71
2023/06/01 04:05:17;;;;;;;17.33;11.20;;;9.90;99.90;;;;;;5051505;28;20039;-71
2023/06/01 04:07:47;;;;;;;17.80;11.13;;;9.80;99.90;;;;;;5051620;28;20072;-70
2023/06/01 04:10:14;;;;;;;23.75;14.80;;;9.80;99.90;;;;;;5051064;28;20090;-70
2023/06/01 04:12:44;;;;;;;19.60;13.35;;;9.90;99.90;;;;;;5051660;28;20477;-70
2023/06/01 04:15:11;;;;;;;21.42;13.77;;;9.90;99.90;;;;;;5051529;28;20025;-70
2023/06/01 04:17:38;;;;;;;17.80;11.75;;;9.90;99.90;;;;;;5051442;28;20040;-70
2023/06/01 04:20:09;;;;;;;16.35;11.98;;;9.90;99.90;;;;;;5050824;28;20025;-70
2023/06/01 04:22:38;;;;;;;14.88;10.63;;;9.80;99.90;;;;;;5051520;28;20433;-70
2023/06/01 04:25:11;;;;;;;16.85;10.70;;;9.70;99.90;;;;;;5051117;28;20033;-70
2023/06/01 04:27:44;;;;;;;13.27;9.30;;;9.70;99.90;;;;;;5051161;28;20050;-70
2023/06/01 04:30:10;;;;;;;18.45;10.30;;;9.70;99.90;;;;;;5050550;28;20056;-70
2023/06/01 04:32:41;;;;;;;15.98;10.57;;;9.80;99.90;;;;;;5050777;28;20103;-71
2023/06/01 04:35:08;;;;;;;13.93;9.75;;;9.80;99.90;;;;;;5050695;28;20029;-70
2023/06/01 04:37:35;;;;;;;16.70;10.30;;;9.90;99.90;;;;;;5050896;28;20025;-70
2023/06/01 04:40:07;;;;;;;18.55;10.55;;;10.00;99.90;;;;;;5050484;28;20472;-70
2023/06/01 04:42:45;;;;;;;;;;;10.10;99.90;;;;;;5052116;28;20029;-71
2023/06/01 04:45:11;;;;;;;15.70;10.85;;;10.20;99.90;;;;;;5050859;28;20126;-70
2023/06/01 04:47:39;;;;;;;16.60;10.98;;;10.20;99.90;;;;;;5051106;28;20075;-70
2023/06/01 04:50:09;;;;;;;14.60;10.30;;;10.20;99.90;;;;;;5050457;28;20031;-70
2023/06/01 04:52:39;;;;;;;18.95;11.57;;;10.10;99.90;;;;;;5049203;28;20382;-71
2023/06/01 04:55:07;;;;;;;17.55;10.68;;;10.10;99.90;;;;;;5050135;28;20029;-70
2023/06/01 04:57:34;;;;;;;13.70;9.95;;;10.10;99.90;;;;;;5050583;28;20029;-70
2023/06/01 05:00:00;;;;;;;13.40;9.85;;;10.30;99.90;;;;;;5050178;28;20032;-70
2023/06/01 05:02:26;;;;;;;14.93;9.77;;;10.50;99.90;;;;;;5050515;28;20319;-70
2023/06/01 05:04:52;;;;;;;12.63;9.38;;;10.60;99.90;;;;;;5050624;28;20033;-71
2023/06/01 05:07:18;;;;;;;16.58;9.95;;;10.70;99.90;;;;;;5050465;28;20021;-70
2023/06/01 05:09:43;;;;;;;13.75;8.73;;;10.80;99.90;;;;;;5050465;28;20037;-71
2023/06/01 05:12:09;;;;;;;14.70;9.77;;;11.00;99.90;;;;;;5049811;28;20379;-71
2023/06/01 05:14:35;;;;;;;14.85;9.50;;;11.20;99.90;;;;;;5050590;28;20025;-70
2023/06/01 05:17:01;;;;;;;16.38;10.38;;;11.40;99.90;;;;;;5049966;28;20138;-71
2023/06/01 05:19:26;;;;;;;19.02;10.70;;;11.50;99.90;;;;;;5050305;28;20040;-70
2023/06/01 05:21:52;;;;;;;12.25;9.40;;;11.60;99.90;;;;;;5050525;28;20028;-70
2023/06/01 05:24:19;;;;;;;13.95;10.25;;;11.70;99.90;;;;;;5049455;28;20029;-70
2023/06/01 05:26:45;;;;;;;17.60;9.88;;;11.80;99.90;;;;;;5050432;28;20378;-70
2023/06/01 05:29:11;;;;;;;14.50;10.35;;;11.90;99.90;;;;;;5050006;28;20029;-71
2023/06/01 05:31:37;;;;;;;13.35;9.02;;;12.00;99.90;;;;;;5050471;28;20079;-70
2023/06/01 05:34:02;;;;;;;18.00;11.43;;;12.20;99.90;;;;;;5049449;28;20033;-71
2023/06/01 05:36:28;;;;;;;16.25;10.75;;;12.30;99.90;;;;;;5049881;28;20039;-70
2023/06/01 05:38:54;;;;;;;19.98;13.15;;;12.50;99.90;;;;;;5049761;28;20033;-71
2023/06/01 05:41:20;;;;;;;16.92;12.85;;;12.60;99.90;;;;;;5048968;28;20079;-71
2023/06/01 05:43:45;;;;;;;22.83;14.55;;;12.80;99.90;;;;;;5049280;28;20057;-70
2023/06/01 05:46:11;;;;;;;19.67;12.95;;;13.00;99.90;;;;;;5048953;28;20459;-71
2023/06/01 05:48:37;;;;;;;18.25;14.20;;;13.20;99.90;;;;;;5049693;28;20045;-71
2023/06/01 05:51:02;;;;;;;23.38;15.23;;;13.30;99.90;;;;;;5049020;28;20098;-71
2023/06/01 05:53:29;;;;;;;22.23;16.85;;;13.50;99.90;;;;;;5049094;28;20021;-71
2023/06/01 05:55:55;;;;;;;21.30;16.50;;;13.60;99.90;;;;;;5050251;28;20024;-71
2023/06/01 05:58:21;;;;;;;20.90;16.48;;;13.70;99.90;;;;;;5049673;28;20053;-71
2023/06/01 06:00:47;;;;;;;25.80;18.75;;;13.90;99.90;;;;;;5050205;28;20056;-71
2023/06/01 06:03:13;;;;;;;30.08;19.30;;;14.10;99.90;;;;;;5048526;28;20021;-71
2023/06/01 06:05:38;;;;;;;22.35;17.95;;;14.30;99.90;;;;;;5049061;28;20032;-71
2023/06/01 06:08:04;;;;;;;24.05;18.83;;;14.50;99.90;;;;;;5048834;28;20036;-71
2023/06/01 06:10:30;;;;;;;24.40;18.60;;;14.50;99.90;;;;;;5049270;28;20029;-71
2023/06/01 06:12:56;;;;;;;23.25;18.00;;;14.60;99.90;;;;;;5049600;28;20032;-71
2023/06/01 06:15:21;;;;;;;24.58;17.88;;;14.50;99.90;;;;;;5049428;28;20025;-71
2023/06/01 06:17:47;;;;;;;24.83;18.48;;;14.40;99.90;;;;;;5048947;28;20175;-71
2023/06/01 06:20:15;;;;;;;24.08;18.40;;;14.30;99.90;;;;;;5048911;28;20021;-71
2023/06/01 06:22:41;;;;;;;23.83;18.23;;;14.30;99.90;;;;;;5049585;28;20106;-71
2023/06/01 06:25:08;;;;;;;25.35;18.75;;;14.30;99.90;;;;;;5049126;28;20071;-71
2023/06/01 06:27:34;;;;;;;20.70;17.52;;;14.40;99.90;;;;;;5049042;28;20078;-70
2023/06/01 06:30:00;;;;;;;22.23;17.85;;;14.40;99.90;;;;;;5048648;28;20427;-74
2023/06/01 06:32:26;;;;;;;24.30;16.98;;;14.40;99.90;;;;;;5049307;28;20036;-71
2023/06/01 06:34:51;;;;;;;22.23;16.58;;;14.30;99.90;;;;;;5049369;28;20420;-70
2023/06/01 06:37:17;;;;;;;21.65;16.38;;;14.30;99.90;;;;;;5048737;28;20111;-70
2023/06/01 06:39:44;;;;;;;22.95;16.98;;;14.40;99.90;;;;;;5049071;28;20473;-70
2023/06/01 06:42:10;;;;;;;26.30;17.90;;;14.40;99.90;;;;;;5048882;28;20074;-70
2023/06/01 06:44:36;;;;;;;22.80;15.93;;;14.70;99.90;;;;;;5049287;28;20331;-71
2023/06/01 06:47:02;;;;;;;25.30;17.00;;;14.70;99.90;;;;;;5049080;28;20036;-73
2023/06/01 06:49:27;;;;;;;19.90;16.23;;;14.80;99.90;;;;;;5049408;28;20351;-70
2023/06/01 06:51:53;;;;;;;25.02;16.63;;;14.70;99.90;;;;;;5049600;28;20471;-70
2023/06/01 06:54:19;;;;;;;20.10;16.55;;;14.50;99.90;;;;;;5048687;28;20029;-70
2023/06/01 06:56:45;;;;;;;24.20;16.00;;;14.40;99.90;;;;;;5049095;28;20029;-70
2023/06/01 06:59:11;;;;;;;20.88;16.27;;;14.40;99.90;;;;;;5048625;28;20040;-70
2023/06/01 07:01:37;;;;;;;22.13;15.93;;;14.30;99.90;;;;;;5049842;28;20033;-70
2023/06/01 07:04:06;;;;;;;23.00;14.38;;;14.50;99.90;;;;;;5048688;28;20415;-73
2023/06/01 07:06:32;;;;;;;17.65;14.57;;;14.50;99.90;;;;;;5050954;28;20029;-70
2023/06/01 07:08:58;;;;;;;21.52;14.98;;;14.70;99.90;;;;;;5053168;28;20036;-71
2023/06/01 07:11:26;;;;;;;17.63;13.70;;;14.80;99.90;;;;;;5052407;28;20106;-71
2023/06/01 07:13:52;;;;;;;19.85;14.00;;;14.80;99.90;;;;;;5051861;28;20025;-71
2023/06/01 07:16:18;;;;;;;19.33;14.27;;;14.80;99.90;;;;;;5052136;28;20025;-70
2023/06/01 07:18:44;;;;;;;20.73;14.25;;;14.80;99.90;;;;;;5052128;28;20167;-71
2023/06/01 07:21:10;;;;;;;17.45;13.68;;;14.80;99.90;;;;;;5051908;28;20044;-71
2023/06/01 07:23:35;;;;;;;19.58;13.50;;;15.00;99.90;;;;;;5052240;28;20025;-71
2023/06/01 07:26:01;;;;;;;17.77;12.10;;;15.00;99.90;;;;;;5052198;28;20053;-70
2023/06/01 07:28:28;;;;;;;18.40;12.73;;;14.90;99.90;;;;;;5051710;28;20117;-70
2023/06/01 07:30:54;;;;;;;17.50;12.25;;;14.80;99.90;;;;;;5052256;28;20462;-71
2023/06/01 07:33:20;;;;;;;17.00;13.00;;;14.90;99.90;;;;;;5051625;28;20059;-71
2023/06/01 07:35:46;;;;;;;19.50;12.35;;;15.00;99.90;;;;;;5052386;28;20021;-71
2023/06/01 07:38:12;;;;;;;17.52;11.88;;;15.20;99.90;;;;;;5051804;28;20470;-72
2023/06/01 07:40:38;;;;;;;17.08;11.65;;;15.30;99.90;;;;;;5052067;28;20452;-71
2023/06/01 07:43:04;;;;;;;20.10;11.85;;;15.30;99.90;;;;;;5052174;28;20032;-73
2023/06/01 07:45:29;;;;;;;17.52;11.10;;;15.40;99.90;;;;;;5052024;28;20029;-71
2023/06/01 07:47:55;;;;;;;18.83;11.57;;;15.60;99.90;;;;;;5052159;28;20033;-72
2023/06/01 07:50:23;;;;;;;16.25;11.52;;;15.70;99.90;;;;;;5051740;28;20065;-71
2023/06/01 07:52:50;;;;;;;15.93;11.65;;;15.80;99.90;;;;;;5051937;28;20028;-71
2023/06/01 07:55:16;;;;;;;14.93;11.55;;;15.70;99.90;;;;;;5051544;28;20028;-71
2023/06/01 07:57:41;;;;;;;16.45;11.68;;;15.40;99.90;;;;;;5051874;28;20029;-71
2023/06/01 08:00:11;;;;;;;17.42;11.48;;;15.50;99.90;;;;;;5051375;28;20044;-72
2023/06/01 08:02:37;;;;;;;22.38;12.77;;;15.60;99.90;;;;;;5051954;28;20039;-72
2023/06/01 08:05:03;;;;;;;15.45;11.82;;;15.60;99.90;;;;;;5052498;28;20022;-71
2023/06/01 08:07:30;;;;;;;19.73;12.90;;;15.60;99.90;;;;;;5051175;28;20029;-71
2023/06/01 08:09:57;;;;;;;17.85;12.13;;;15.60;99.90;;;;;;5051638;28;20373;-71
2023/06/01 08:12:23;;;;;;;21.15;12.18;;;15.70;99.90;;;;;;5051227;28;20023;-71
2023/06/01 08:14:49;;;;;;;21.40;11.90;;;16.00;99.90;;;;;;5052042;28;20033;-71
2023/06/01 08:17:15;;;;;;;19.13;10.73;;;16.00;99.90;;;;;;5049250;28;20036;-72
2023/06/01 08:19:42;;;;;;;13.40;10.05;;;16.00;99.90;;;;;;5050778;28;20041;-71
2023/06/01 08:22:07;;;;;;;15.93;9.32;;;16.30;99.90;;;;;;5050820;28;20067;-74
2023/06/01 08:24:34;;;;;;;14.18;9.35;;;16.20;99.90;;;;;;5051151;28;20064;-71
2023/06/01 08:27:00;;;;;;;16.67;9.65;;;16.10;99.90;;;;;;5049522;28;20053;-71
2023/06/01 08:29:26;;;;;;;12.90;9.48;;;16.30;99.90;;;;;;5050413;28;20229;-72
2023/06/01 08:31:52;;;;;;;14.63;8.93;;;16.50;99.90;;;;;;5050301;28;20104;-72
2023/06/01 08:34:19;;;;;;;13.95;9.27;;;16.40;99.90;;;;;;5050027;28;20131;-72
2023/06/01 08:36:45;;;;;;;15.88;7.72;;;16.50;99.90;;;;;;5050480;28;20031;-71
2023/06/01 08:39:22;;;;;;;13.57;7.97;;;16.30;99.90;;;;;;5049495;28;20389;-73
2023/06/01 08:41:59;;;;;;;12.90;8.65;;;16.20;99.90;;;;;;5050472;28;20719;-71
2023/06/01 08:44:28;;;;;;;15.10;8.57;;;16.30;99.90;;;;;;5049739;28;20035;-72
2023/06/01 08:46:55;;;;;;;15.82;8.70;;;16.40;99.90;;;;;;5050061;28;20029;-72
2023/06/01 08:49:23;;;;;;;9.98;7.85;;;16.40;99.90;;;;;;5049828;28;20044;-72
2023/06/01 08:51:55;;;;;;;13.73;8.23;;;16.60;99.90;;;;;;5050102;28;20052;-74
2023/06/01 08:54:20;;;;;;;14.35;8.43;;;16.90;99.90;;;;;;5049325;28;20021;-72
2023/06/01 08:56:46;;;;;;;13.48;8.93;;;16.80;99.90;;;;;;5050068;28;20029;-73
2023/06/01 08:59:15;;;;;;;13.88;8.38;;;16.80;99.90;;;;;;5049024;28;20108;-73
2023/06/01 09:01:42;;;;;;;12.65;8.18;;;16.60;99.90;;;;;;5049717;28;20047;-72
2023/06/01 09:04:09;;;;;;;13.77;8.00;;;16.40;99.90;;;;;;5049696;28;20507;-72
2023/06/01 09:06:36;;;;;;;9.77;7.35;;;16.70;99.90;;;;;;5050075;28;20021;-72
2023/06/01 09:09:03;;;;;;;10.82;7.22;;;16.80;99.90;;;;;;5050060;28;20090;-72
2023/06/01 09:11:28;;;;;;;12.45;8.38;;;17.00;99.90;;;;;;5049283;28;20025;-72
2023/06/01 09:13:56;;;;;;;10.23;7.78;;;16.90;99.90;;;;;;5049914;28;20029;-72
2023/06/01 09:16:34;;;;;;;15.25;8.23;;;16.90;99.90;;;;;;5049281;28;20079;-71
2023/06/01 09:19:00;;;;;;;15.82;8.73;;;16.90;99.90;;;;;;5049692;28;20039;-72
2023/06/01 09:21:26;;;;;;;13.30;8.65;;;16.60;99.90;;;;;;5049474;28;20029;-72
2023/06/01 09:23:52;;;;;;;14.20;8.75;;;16.40;99.90;;;;;;5049353;28;20499;-71
2023/06/01 09:26:18;;;;;;;18.30;9.07;;;16.20;99.90;;;;;;5049078;28;20053;-71
2023/06/01 09:29:03;;;;;;;12.35;8.52;;;16.50;99.90;;;;;;5048932;28;20029;-72
2023/06/01 09:31:42;;;;;;;12.90;7.95;;;16.60;99.90;;;;;;5049117;28;20029;-73
2023/06/01 09:34:15;;;;;;;17.17;9.35;;;16.40;99.90;;;;;;5049763;28;20036;-74
2023/06/01 09:36:41;;;;;;;16.15;8.98;;;16.10;99.90;;;;;;5049756;28;20029;-73
2023/06/01 09:39:09;;;;;;;13.75;8.05;;;16.30;99.90;;;;;;5049481;28;20832;-72
2023/06/01 09:42:06;;;;;;;17.35;8.73;;;16.60;99.90;;;;;;5049301;28;20020;-74
2023/06/01 09:44:37;;;;;;;18.05;8.98;;;16.50;99.90;;;;;;5041035;28;20206;-72
2023/06/01 09:47:12;;;;;;;15.90;8.93;;;16.40;99.90;;;;;;5049355;28;20029;-72
2023/06/01 09:49:44;;;;;;;13.70;9.23;;;16.30;99.90;;;;;;5050252;28;20065;-72
2023/06/01 09:52:14;;;;;;;14.02;8.07;;;16.10;99.90;;;;;;5050175;28;20200;-75
2023/06/01 09:54:48;;;;;;;14.95;8.80;;;16.10;99.90;;;;;;5049858;28;20021;-71
2023/06/01 09:57:23;;;;;;;13.60;7.82;;;16.20;99.90;;;;;;5049718;28;20057;-71
2023/06/01 09:59:49;;;;;;;14.88;8.43;;;16.40;99.90;;;;;;5050809;28;20036;-71
2023/06/01 10:02:18;;;;;;;14.75;7.82;;;16.70;99.90;;;;;;5050081;28;20025;-72
2023/06/01 10:04:55;;;;;;;15.52;8.82;;;16.70;99.90;;;;;;5050803;28;20102;-71
2023/06/01 10:07:22;;;;;;;12.45;8.25;;;17.10;99.90;;;;;;5050321;28;20029;-71
2023/06/01 10:09:51;;;;;;;13.57;8.25;;;17.10;99.90;;;;;;5050901;28;20109;-70
2023/06/01 10:12:17;;;;;;;14.48;8.20;;;16.90;99.90;;;;;;5050254;28;20025;-70
2023/06/01 10:14:43;;;;;;;12.38;8.38;;;16.80;99.90;;;;;;5050928;28;20082;-71
2023/06/01 10:17:12;;;;;;;12.77;8.55;;;16.90;99.90;;;;;;5051042;28;20116;-73
2023/06/01 10:19:38;;;;;;;13.93;8.63;;;16.80;99.90;;;;;;5050635;28;20171;-72
2023/06/01 10:22:05;;;;;;;11.40;8.02;;;16.60;99.90;;;;;;5050858;28;20061;-71
2023/06/01 10:24:32;;;;;;;11.43;7.75;;;16.50;99.90;;;;;;5049485;28;20590;-72
2023/06/01 10:27:16;;;;;;;14.02;7.03;;;16.60;99.90;;;;;;5050396;28;20370;-71
2023/06/01 10:29:43;;;;;;;12.32;7.43;;;16.80;99.90;;;;;;5048392;28;20492;-71
2023/06/01 10:32:40;;;;;;;10.60;8.05;;;17.10;99.90;;;;;;5049257;28;20029;-72
2023/06/01 10:35:07;;;;;;;12.52;8.00;;;16.90;99.90;;;;;;5048836;28;20025;-73
2023/06/01 10:37:33;;;;;;;17.00;8.23;;;17.00;99.90;;;;;;5047437;28;20057;-72
2023/06/01 10:40:18;;;;;;;16.02;7.97;;;17.10;99.90;;;;;;5050126;28;20029;-72
2023/06/01 10:42:44;;;;;;;12.77;7.15;;;17.30;99.90;;;;;;5053097;28;20056;-72
2023/06/01 10:45:35;;;;;;;11.48;7.40;;;17.10;99.90;;;;;;5052738;28;20025;-71
2023/06/01 10:48:02;;;;;;;14.65;8.25;;;17.10;99.90;;;;;;5052743;28;20481;-73
2023/06/01 10:50:27;;;;;;;14.93;7.63;;;16.70;99.90;;;;;;5052545;28;20029;-74
2023/06/01 10:52:54;;;;;;;13.85;8.07;;;16.60;99.90;;;;;;5052835;28;20083;-73
2023/06/01 10:55:22;;;;;;;12.30;7.85;;;16.50;99.90;;;;;;5052006;28;20025;-73
2023/06/01 10:57:48;;;;;;;17.77;8.68;;;16.40;99.90;;;;;;5053177;28;20115;-73
2023/06/01 11:00:28;;;;;;;14.45;8.10;;;16.20;99.90;;;;;;5052850;28;20155;-75
2023/06/01 11:03:02;;;;;;;14.73;8.70;;;15.90;99.90;;;;;;5053422;28;20458;-72
2023/06/01 11:05:43;;;;;;;13.18;7.90;;;15.70;99.90;;;;;;5052528;28;20534;-73
2023/06/01 11:08:30;;;;;;;12.07;8.07;;;15.80;99.90;;;;;;5053146;28;20051;-72
2023/06/01 11:11:06;;;;;;;14.32;8.07;;;15.80;99.90;;;;;;5052639;28;20033;-72
2023/06/01 11:13:37;;;;;;;13.52;8.52;;;15.50;99.90;;;;;;5052490;28;20028;-72
2023/06/01 11:16:20;;;;;;;14.73;8.85;;;15.60;99.90;;;;;;5052914;28;20051;-72
2023/06/01 11:18:49;;;;;;;14.02;8.52;;;15.60;99.90;;;;;;5051482;28;20033;-73
2023/06/01 11:21:21;;;;;;;13.05;7.30;;;15.80;99.90;;;;;;5052216;28;20095;-75
2023/06/01 11:23:47;;;;;;;20.00;8.88;;;15.70;99.90;;;;;;5052633;28;20050;-72
2023/06/01 11:26:18;;;;;;;14.25;8.80;;;15.70;99.90;;;;;;5052591;28;20494;-74
2023/06/01 11:28:48;;;;;;;19.17;9.07;;;15.50;99.90;;;;;;5052517;28;20036;-72
2023/06/01 11:31:18;;;;;;;14.38;8.65;;;15.40;99.90;;;;;;5052167;28;20024;-75
2023/06/01 11:33:56;;;;;;;15.63;9.45;;;15.60;99.90;;;;;;5052292;28;20112;-72
2023/06/01 11:36:24;;;;;;;13.75;8.18;;;15.60;99.90;;;;;;5051866;28;20025;-72
2023/06/01 11:38:51;;;;;;;12.80;9.20;;;15.60;99.90;;;;;;5052510;28;20044;-73
2023/06/01 11:41:18;;;;;;;16.52;8.88;;;15.60;99.90;;;;;;5051911;28;20094;-74
2023/06/01 11:43:44;;;;;;;16.13;9.48;;;15.70;99.90;;;;;;5052170;28;20068;-72
2023/06/01 11:46:10;;;;;;;12.98;9.45;;;15.70;99.90;;;;;;5052364;28;20064;-71
2023/06/01 11:48:36;;;;;;;12.13;8.55;;;15.90;99.90;;;;;;5051630;28;20441;-73
2023/06/01 11:51:02;;;;;;;18.42;9.13;;;16.10;99.90;;;;;;5051520;28;20017;-72
2023/06/01 11:53:31;;;;;;;13.98;8.40;;;16.40;99.90;;;;;;5051007;28;20020;-73
2023/06/01 11:55:57;;;;;;;14.75;8.93;;;16.50;99.90;;;;;;5052663;28;20025;-73
2023/06/01 11:58:28;;;;;;;15.18;9.90;;;16.70;99.90;;;;;;5050447;28;20151;-73
2023/06/01 12:00:55;;;;;;;18.70;9.60;;;16.80;99.90;;;;;;5052122;28;20036;-73
2023/06/01 12:03:23;;;;;;;17.35;9.07;;;16.90;99.90;;;;;;5051028;28;20052;-73
2023/06/01 12:05:50;;;;;;;18.42;9.23;;;16.80;99.90;;;;;;5050178;28;20127;-73
2023/06/01 12:08:22;;;;;;;16.63;9.30;;;16.70;99.90;;;;;;5051619;28;20033;-72
2023/06/01 12:10:50;;;;;;;13.93;8.75;;;16.90;99.90;;;;;;5051908;28;20193;-73
2023/06/01 12:13:20;;;;;;;13.02;9.05;;;16.60;99.90;;;;;;5051800;28;20021;-72
2023/06/01 12:15:46;;;;;;;18.40;10.27;;;16.60;99.90;;;;;;5049626;28;20474;-72
2023/06/01 12:18:12;;;;;;;16.38;9.95;;;16.60;99.90;;;;;;5051097;28;20497;-71
2023/06/01 12:20:41;;;;;;;14.55;9.35;;;16.60;99.90;;;;;;5050729;28;20111;-72
2023/06/01 12:23:12;;;;;;;19.77;9.60;;;16.40;99.90;;;;;;5051472;28;20049;-72
2023/06/01 12:25:50;;;;;;;16.42;9.80;;;16.30;99.90;;;;;;5050756;28;20057;-72
2023/06/01 12:28:19;;;;;;;15.25;8.63;;;16.40;99.90;;;;;;5051939;28;20432;-72
2023/06/01 12:30:46;;;;;;;18.02;9.38;;;16.20;99.90;;;;;;5051621;28;20048;-73
2023/06/01 12:33:34;;;;;;;17.38;9.95;;;16.40;99.90;;;;;;5051786;28;20036;-72
2023/06/01 12:36:01;;;;;;;12.48;9.30;;;16.60;99.90;;;;;;5051599;28;20028;-72
2023/06/01 12:38:26;;;;;;;15.50;9.13;;;16.20;99.90;;;;;;5050962;28;20120;-72
2023/06/01 12:41:09;;;;;;;13.05;8.50;;;16.10;99.90;;;;;;5051092;28;20064;-72